Time;durP1;ratioP1;P1;durP2;ratioP2;P2;SDS_P1;SDS_P2;PMS_P1;PMS_P2;Temp;Humidity;BMP_temperature;BMP_pressure;BME280_temperature;BME280_humidity;BME280_pressure;Samples;Min_cycle;Max_cycle;Signal;HPM_P1;HPM_P2
2022/04/11 00:02:00;;;;;;;7.95;5.03;;;6.60;99.90;;;;;;5073449;28;20201;-53
2022/04/11 00:04:26;;;;;;;6.57;4.15;;;6.60;99.90;;;;;;5074377;28;20271;-53
2022/04/11 00:06:52;;;;;;;5.63;3.90;;;6.60;99.90;;;;;;5074311;28;20174;-54
2022/04/11 00:09:17;;;;;;;7.60;4.82;;;6.60;99.90;;;;;;5073751;28;20170;-54
2022/04/11 00:11:43;;;;;;;5.53;4.53;;;6.60;99.90;;;;;;5055760;28;20180;-52
2022/04/11 00:14:08;;;;;;;10.05;4.47;;;6.60;99.90;;;;;;5073830;28;20276;-54
2022/04/11 00:16:34;;;;;;;7.97;4.32;;;6.60;99.90;;;;;;5073737;28;20229;-53
2022/04/11 00:19:00;;;;;;;7.80;6.05;;;6.60;99.90;;;;;;5073939;28;20166;-51
2022/04/11 00:21:25;;;;;;;7.43;5.15;;;6.50;99.90;;;;;;5074072;28;20197;-51
2022/04/11 00:23:51;;;;;;;6.20;4.63;;;6.60;99.90;;;;;;5073875;28;20564;-52
2022/04/11 00:26:16;;;;;;;9.20;5.57;;;6.60;99.90;;;;;;5073565;28;20162;-52
2022/04/11 00:28:42;;;;;;;6.65;4.03;;;6.70;99.90;;;;;;5073467;28;20170;-53
2022/04/11 00:31:07;;;;;;;7.00;4.55;;;6.70;99.90;;;;;;5073362;28;20170;-51
2022/04/11 00:33:33;;;;;;;8.05;4.90;;;6.60;99.90;;;;;;5073340;28;20166;-53
2022/04/11 00:35:58;;;;;;;9.18;5.00;;;6.50;99.90;;;;;;5073352;28;20530;-51
2022/04/11 00:38:24;;;;;;;7.78;4.65;;;6.50;99.90;;;;;;5073827;28;20649;-52
2022/04/11 00:40:49;;;;;;;7.13;4.85;;;6.50;99.90;;;;;;5073336;28;20317;-52
2022/04/11 00:43:34;;;;;;;8.60;5.20;;;6.40;99.90;;;;;;5073134;28;20202;-54
2022/04/11 00:46:01;;;;;;;7.30;5.15;;;6.40;99.90;;;;;;5073137;28;20630;-52
2022/04/11 00:48:27;;;;;;;10.50;5.88;;;6.40;99.90;;;;;;5073386;28;20166;-52
2022/04/11 00:50:55;;;;;;;10.07;5.38;;;6.50;99.90;;;;;;5073353;28;20163;-54
2022/04/11 00:53:22;;;;;;;8.77;5.00;;;6.40;99.90;;;;;;5055169;28;20643;-54
2022/04/11 00:55:48;;;;;;;6.68;5.18;;;6.40;99.90;;;;;;5072886;28;20508;-53
2022/04/11 00:58:14;;;;;;;7.75;5.35;;;6.40;99.90;;;;;;5073168;28;20277;-53
2022/04/11 01:00:40;;;;;;;9.00;5.65;;;6.40;99.90;;;;;;5054971;28;20678;-53
2022/04/11 01:03:05;;;;;;;10.45;4.88;;;6.30;99.90;;;;;;5072710;28;20202;-55
2022/04/11 01:05:31;;;;;;;10.95;5.90;;;6.30;99.90;;;;;;5072774;28;20579;-53
2022/04/11 01:08:06;;;;;;;6.93;5.30;;;6.40;99.90;;;;;;5072916;28;20166;-52
2022/04/11 01:10:32;;;;;;;10.20;5.85;;;6.30;99.90;;;;;;5072731;28;20219;-53
2022/04/11 01:12:58;;;;;;;7.68;5.32;;;6.30;99.90;;;;;;5072495;28;20214;-53
2022/04/11 01:15:24;;;;;;;7.15;5.00;;;6.40;99.90;;;;;;5072978;28;20181;-51
2022/04/11 01:17:49;;;;;;;9.13;5.82;;;6.30;99.90;;;;;;5072564;28;20161;-53
2022/04/11 01:20:16;;;;;;;9.05;5.78;;;6.40;99.90;;;;;;5072581;28;20170;-54
2022/04/11 01:22:43;;;;;;;10.35;6.15;;;6.40;99.90;;;;;;5072656;28;20212;-53
2022/04/11 01:25:10;;;;;;;12.32;6.68;;;6.30;99.90;;;;;;5072409;28;20256;-53
2022/04/11 01:27:36;;;;;;;9.30;5.45;;;6.30;99.90;;;;;;5072472;28;20174;-52
2022/04/11 01:30:04;;;;;;;7.50;5.70;;;6.30;99.90;;;;;;5072683;28;20308;-52
2022/04/11 01:32:29;;;;;;;11.45;6.22;;;6.20;99.90;;;;;;5071914;28;20166;-53
2022/04/11 01:34:56;;;;;;;9.82;6.00;;;6.10;99.90;;;;;;5072605;28;20162;-53
2022/04/11 01:37:21;;;;;;;9.60;6.03;;;6.10;99.90;;;;;;5072561;28;20178;-53
2022/04/11 01:39:47;;;;;;;7.93;5.43;;;6.10;99.90;;;;;;5072184;28;20176;-52
2022/04/11 01:42:12;;;;;;;9.00;4.72;;;6.10;99.90;;;;;;5072220;28;20205;-54
2022/04/11 01:44:38;;;;;;;7.25;4.90;;;6.10;99.90;;;;;;5072176;28;20166;-53
2022/04/11 01:47:04;;;;;;;9.82;6.03;;;6.10;99.90;;;;;;5072358;28;20201;-55
2022/04/11 01:49:29;;;;;;;8.10;5.15;;;6.10;99.90;;;;;;5072186;28;20513;-54
2022/04/11 01:51:55;;;;;;;8.90;4.93;;;6.10;99.90;;;;;;5072486;28;20181;-51
2022/04/11 01:54:20;;;;;;;7.43;4.72;;;6.10;99.90;;;;;;5072070;28;20197;-53
2022/04/11 01:56:46;;;;;;;11.50;5.10;;;6.00;99.90;;;;;;5072055;28;20203;-52
2022/04/11 01:59:13;;;;;;;10.32;5.28;;;6.00;99.90;;;;;;5071929;28;20623;-54
2022/04/11 02:01:38;;;;;;;9.13;5.47;;;5.90;99.90;;;;;;5072150;28;20257;-53
2022/04/11 02:04:04;;;;;;;6.20;4.53;;;5.90;99.90;;;;;;5054101;28;20602;-51
2022/04/11 02:06:29;;;;;;;8.95;4.53;;;6.00;99.90;;;;;;5072006;28;20161;-53
2022/04/11 02:08:55;;;;;;;7.22;5.85;;;6.00;99.90;;;;;;5072203;28;20166;-52
2022/04/11 02:11:20;;;;;;;7.78;5.30;;;6.00;99.90;;;;;;5072192;28;20645;-52
2022/04/11 02:13:46;;;;;;;9.60;4.95;;;6.00;99.90;;;;;;5071617;28;20210;-52
2022/04/11 02:16:11;;;;;;;6.45;4.72;;;5.90;99.90;;;;;;5071889;28;20180;-52
2022/04/11 02:18:37;;;;;;;7.60;5.03;;;6.00;99.90;;;;;;5071903;28;20169;-53
2022/04/11 02:21:02;;;;;;;10.60;4.82;;;6.00;99.90;;;;;;5071870;28;20633;-54
2022/04/11 02:23:28;;;;;;;7.70;5.93;;;6.00;99.90;;;;;;5071931;28;20209;-52
2022/04/11 02:25:53;;;;;;;6.88;4.97;;;5.90;99.90;;;;;;5072124;28;20189;-57
2022/04/11 02:28:20;;;;;;;8.00;4.78;;;5.90;99.90;;;;;;5071791;28;20224;-52
2022/04/11 02:30:46;;;;;;;9.13;5.00;;;6.00;99.90;;;;;;5071634;28;20544;-53
2022/04/11 02:33:12;;;;;;;8.40;4.72;;;6.00;99.90;;;;;;5071706;28;20241;-51
2022/04/11 02:35:37;;;;;;;5.95;4.15;;;5.90;99.90;;;;;;5071955;28;20566;-52
2022/04/11 02:38:03;;;;;;;6.43;4.47;;;6.00;99.90;;;;;;5071696;28;20173;-53
2022/04/11 02:40:29;;;;;;;5.45;4.22;;;5.90;99.90;;;;;;5071866;28;20170;-52
2022/04/11 02:42:54;;;;;;;4.68;3.75;;;5.90;99.90;;;;;;5071825;28;20206;-54
2022/04/11 02:45:20;;;;;;;5.72;4.35;;;5.90;99.90;;;;;;5074054;28;20216;-54
2022/04/11 02:47:46;;;;;;;6.25;4.68;;;5.90;99.90;;;;;;5075662;28;20277;-52
2022/04/11 02:50:12;;;;;;;7.85;4.43;;;6.00;99.90;;;;;;5075373;28;20162;-52
2022/04/11 02:52:38;;;;;;;4.22;3.80;;;5.90;99.90;;;;;;5075347;28;20619;-55
2022/04/11 02:55:04;;;;;;;9.45;4.55;;;5.90;99.90;;;;;;5075270;28;20173;-55
2022/04/11 02:57:30;;;;;;;6.80;4.65;;;5.90;99.90;;;;;;5075251;28;20193;-52
2022/04/11 02:59:56;;;;;;;12.73;4.80;;;5.90;99.90;;;;;;5075721;28;20626;-52
2022/04/11 03:02:22;;;;;;;7.00;4.47;;;5.90;99.90;;;;;;5075386;28;20212;-50
2022/04/11 03:04:47;;;;;;;5.32;3.97;;;5.90;99.90;;;;;;5075029;28;20166;-51
2022/04/11 03:07:13;;;;;;;8.65;4.50;;;5.80;99.90;;;;;;5075084;28;20257;-54
2022/04/11 03:09:39;;;;;;;8.23;4.53;;;5.80;99.90;;;;;;5075140;28;20162;-50
2022/04/11 03:12:05;;;;;;;8.73;4.18;;;5.80;99.90;;;;;;5074730;28;20221;-57
2022/04/11 03:14:31;;;;;;;6.25;3.90;;;5.80;99.90;;;;;;5075148;28;20236;-57
2022/04/11 03:16:57;;;;;;;8.55;4.30;;;5.80;99.90;;;;;;5074879;28;20531;-50
2022/04/11 03:19:23;;;;;;;8.30;4.15;;;5.80;99.90;;;;;;5075332;28;20210;-54
2022/04/11 03:21:49;;;;;;;7.60;4.03;;;5.70;99.90;;;;;;5074927;28;20170;-52
2022/04/11 03:24:14;;;;;;;9.20;4.18;;;5.80;99.90;;;;;;5075016;28;20180;-50
2022/04/11 03:26:40;;;;;;;6.85;4.32;;;5.80;99.90;;;;;;5074931;28;20166;-52
2022/04/11 03:29:06;;;;;;;6.22;4.45;;;5.70;99.90;;;;;;5074884;28;20767;-54
2022/04/11 03:31:31;;;;;;;7.60;4.85;;;5.80;99.90;;;;;;5074678;28;20257;-54
2022/04/11 03:33:57;;;;;;;21.67;5.57;;;5.70;99.90;;;;;;5075123;28;20322;-50
2022/04/11 03:36:24;;;;;;;6.47;4.47;;;5.70;99.90;;;;;;5075083;28;20227;-57
2022/04/11 03:38:49;;;;;;;6.82;3.75;;;5.70;99.90;;;;;;5074733;28;20174;-57
2022/04/11 03:41:15;;;;;;;6.18;3.75;;;5.60;99.90;;;;;;5074516;28;20235;-54
2022/04/11 03:43:41;;;;;;;7.28;3.75;;;5.60;99.90;;;;;;5074417;28;20730;-57
2022/04/11 03:46:06;;;;;;;6.50;4.00;;;5.70;99.90;;;;;;5074377;28;20158;-53
2022/04/11 03:48:32;;;;;;;9.00;3.85;;;5.60;99.90;;;;;;5074249;28;20170;-55
2022/04/11 03:50:57;;;;;;;7.20;3.78;;;5.60;99.90;;;;;;5074319;28;20173;-51
2022/04/11 03:53:23;;;;;;;11.90;3.75;;;5.60;99.90;;;;;;5074490;28;20530;-54
2022/04/11 03:55:48;;;;;;;5.13;3.78;;;5.60;99.90;;;;;;5073813;28;20166;-54
2022/04/11 03:58:14;;;;;;;5.78;3.58;;;5.60;99.90;;;;;;5074090;28;20538;-53
2022/04/11 04:00:39;;;;;;;7.20;3.92;;;5.60;99.90;;;;;;5074211;28;20166;-55
2022/04/11 04:03:06;;;;;;;7.45;3.53;;;5.60;99.90;;;;;;5073967;28;20222;-52
2022/04/11 04:05:32;;;;;;;4.50;3.75;;;5.50;99.90;;;;;;5074113;28;20158;-52
2022/04/11 04:07:58;;;;;;;6.47;3.78;;;5.50;99.90;;;;;;5073944;28;20174;-54
2022/04/11 04:10:26;;;;;;;5.20;3.92;;;5.50;99.90;;;;;;5074273;28;20170;-52
2022/04/11 04:12:57;;;;;;;9.45;3.67;;;5.40;99.90;;;;;;5073776;28;20249;-57
2022/04/11 04:15:22;;;;;;;6.82;3.95;;;5.40;99.90;;;;;;5074343;28;20559;-54
2022/04/11 04:17:48;;;;;;;5.68;3.30;;;5.40;99.90;;;;;;5073741;28;20169;-53
2022/04/11 04:20:14;;;;;;;7.75;3.60;;;5.30;99.90;;;;;;5073729;28;20630;-52
2022/04/11 04:22:39;;;;;;;6.82;3.65;;;5.30;99.90;;;;;;5073547;28;20251;-52
2022/04/11 04:25:05;;;;;;;4.57;3.83;;;5.30;99.90;;;;;;5073590;28;20177;-52
2022/04/11 04:27:31;;;;;;;6.55;3.53;;;5.30;99.90;;;;;;5073410;28;20162;-53
2022/04/11 04:29:56;;;;;;;8.77;3.90;;;5.20;99.90;;;;;;5073778;28;20166;-51
2022/04/11 04:32:22;;;;;;;4.10;3.33;;;5.20;99.90;;;;;;5073772;28;20621;-51
2022/04/11 04:34:48;;;;;;;7.78;3.55;;;5.20;99.90;;;;;;5056014;28;20177;-54
2022/04/11 04:37:13;;;;;;;5.43;3.20;;;5.20;99.90;;;;;;5073052;28;20170;-57
2022/04/11 04:39:39;;;;;;;9.95;3.72;;;5.20;99.90;;;;;;5073262;28;20223;-54
2022/04/11 04:42:05;;;;;;;7.60;3.97;;;5.10;99.90;;;;;;5073143;28;20529;-57
2022/04/11 04:44:30;;;;;;;6.97;3.90;;;5.10;99.90;;;;;;5072988;28;20197;-51
2022/04/11 04:46:56;;;;;;;8.57;3.72;;;4.90;99.90;;;;;;5073369;28;20201;-53
2022/04/11 04:49:21;;;;;;;7.57;3.42;;;5.00;99.90;;;;;;5073137;28;20626;-54
2022/04/11 04:51:47;;;;;;;5.18;3.53;;;5.10;99.90;;;;;;5072808;28;20188;-54
2022/04/11 04:54:12;;;;;;;8.57;3.22;;;5.00;99.90;;;;;;5072987;28;20170;-52
2022/04/11 04:56:38;;;;;;;5.05;3.45;;;5.00;99.90;;;;;;5073208;28;20255;-52
2022/04/11 04:59:03;;;;;;;6.60;3.88;;;5.00;99.90;;;;;;5072925;28;20288;-52
2022/04/11 05:01:29;;;;;;;7.53;3.90;;;4.90;99.90;;;;;;5072839;28;20519;-50
2022/04/11 05:03:54;;;;;;;7.32;3.53;;;4.90;99.90;;;;;;5073140;28;20202;-52
2022/04/11 05:06:22;;;;;;;5.53;3.25;;;5.00;99.90;;;;;;5072577;28;20166;-50
2022/04/11 05:08:48;;;;;;;5.63;3.10;;;5.00;99.90;;;;;;5072390;28;20176;-51
2022/04/11 05:11:14;;;;;;;7.10;3.60;;;5.00;99.90;;;;;;5072432;28;20157;-52
2022/04/11 05:13:40;;;;;;;6.38;3.30;;;4.90;99.90;;;;;;5072450;28;20225;-52
2022/04/11 05:16:06;;;;;;;5.03;3.17;;;5.10;99.90;;;;;;5072622;28;20181;-51
2022/04/11 05:18:31;;;;;;;7.75;3.78;;;5.00;99.90;;;;;;5072090;28;20244;-54
2022/04/11 05:20:57;;;;;;;6.80;3.30;;;5.00;99.90;;;;;;5072290;28;20531;-49
2022/04/11 05:23:22;;;;;;;5.05;2.97;;;5.10;99.90;;;;;;5092444;28;20250;-52
2022/04/11 05:25:48;;;;;;;4.93;3.13;;;5.10;99.90;;;;;;5092109;28;20188;-53
2022/04/11 05:28:13;;;;;;;3.25;2.92;;;5.10;99.90;;;;;;5092082;28;20647;-51
2022/04/11 05:30:39;;;;;;;3.78;2.90;;;5.10;99.90;;;;;;5092133;28;20184;-53
2022/04/11 05:33:04;;;;;;;8.40;3.55;;;5.20;99.90;;;;;;5092253;28;20173;-54
2022/04/11 05:35:30;;;;;;;7.90;3.47;;;5.20;99.90;;;;;;5092222;28;20254;-53
2022/04/11 05:37:55;;;;;;;4.63;3.10;;;5.20;99.90;;;;;;5092527;28;20176;-47
2022/04/11 05:40:22;;;;;;;7.57;3.58;;;5.30;99.90;;;;;;5092125;28;20173;-57
2022/04/11 05:42:47;;;;;;;5.45;3.05;;;5.30;99.90;;;;;;5091982;28;20208;-46
2022/04/11 05:45:13;;;;;;;4.57;3.10;;;5.30;99.90;;;;;;5092115;28;20176;-48
2022/04/11 05:47:38;;;;;;;5.97;3.33;;;5.30;99.90;;;;;;5092029;28;20165;-48
2022/04/11 05:50:04;;;;;;;9.25;3.17;;;5.40;99.90;;;;;;5091905;28;20180;-48
2022/04/11 05:52:30;;;;;;;9.15;3.58;;;5.40;99.90;;;;;;5091938;28;20174;-47
2022/04/11 05:54:55;;;;;;;5.97;3.50;;;5.40;99.90;;;;;;5092390;28;20219;-50
2022/04/11 05:57:21;;;;;;;5.53;3.35;;;5.50;99.90;;;;;;5091928;28;20169;-51
2022/04/11 05:59:47;;;;;;;5.30;3.50;;;5.40;99.90;;;;;;5091969;28;20162;-47
2022/04/11 06:02:12;;;;;;;10.52;3.58;;;5.60;99.90;;;;;;5091740;28;20201;-45
2022/04/11 06:04:38;;;;;;;8.13;3.25;;;5.60;99.90;;;;;;5092074;28;20256;-49
2022/04/11 06:07:04;;;;;;;4.45;3.03;;;5.60;99.90;;;;;;5091879;28;20162;-51
2022/04/11 06:09:31;;;;;;;5.43;3.25;;;5.70;99.90;;;;;;5091629;28;20175;-49
2022/04/11 06:11:57;;;;;;;3.45;3.10;;;5.80;99.90;;;;;;5091801;28;20322;-54
2022/04/11 06:14:23;;;;;;;7.68;3.38;;;5.80;99.90;;;;;;5073991;28;20533;-53
2022/04/11 06:16:48;;;;;;;7.25;3.60;;;5.90;99.90;;;;;;5091712;28;20166;-50
2022/04/11 06:19:15;;;;;;;6.78;3.40;;;6.00;99.90;;;;;;5094085;28;20175;-50
2022/04/11 06:21:40;;;;;;;5.10;3.47;;;6.00;99.90;;;;;;5095781;28;20658;-54
2022/04/11 06:24:06;;;;;;;4.32;3.22;;;6.10;99.90;;;;;;5077774;28;20177;-53
2022/04/11 06:26:32;;;;;;;6.13;3.58;;;6.20;99.90;;;;;;5095833;28;20161;-51
2022/04/11 06:28:57;;;;;;;7.30;3.70;;;6.20;99.90;;;;;;5095735;28;20170;-50
2022/04/11 06:31:23;;;;;;;10.57;4.00;;;6.30;99.90;;;;;;5096101;28;20633;-52
2022/04/11 06:33:49;;;;;;;9.00;3.28;;;6.40;99.90;;;;;;5093175;28;20165;-50
2022/04/11 06:36:14;;;;;;;6.30;3.97;;;6.50;99.90;;;;;;5095822;28;20170;-54
2022/04/11 06:38:40;;;;;;;9.98;3.63;;;6.40;99.90;;;;;;5095820;28;20630;-52
2022/04/11 06:41:05;;;;;;;6.32;3.28;;;6.40;99.90;;;;;;5095518;28;20606;-51
2022/04/11 06:43:31;;;;;;;9.57;4.57;;;6.60;99.90;;;;;;5095461;28;20197;-53
2022/04/11 06:45:57;;;;;;;6.88;3.58;;;6.70;99.90;;;;;;5095396;28;20193;-55
2022/04/11 06:48:22;;;;;;;7.90;3.05;;;6.80;99.90;;;;;;5095422;28;20536;-51
2022/04/11 06:50:50;;;;;;;11.00;4.10;;;6.90;99.90;;;;;;5095359;28;20181;-49
2022/04/11 06:53:15;;;;;;;12.40;4.07;;;7.00;99.90;;;;;;5095584;28;20173;-47
2022/04/11 06:55:43;;;;;;;11.70;3.67;;;7.20;99.90;;;;;;5095168;28;20168;-47
2022/04/11 06:58:09;;;;;;;8.30;3.53;;;7.30;99.90;;;;;;5095525;28;20181;-47
2022/04/11 07:00:34;;;;;;;8.43;4.05;;;7.40;99.90;;;;;;5095161;28;20180;-47
2022/04/11 07:02:59;;;;;;;7.63;4.28;;;7.50;99.90;;;;;;5095007;28;20205;-53
2022/04/11 07:05:25;;;;;;;7.18;3.88;;;7.60;99.90;;;;;;5095268;28;20165;-52
2022/04/11 07:07:50;;;;;;;6.65;3.53;;;7.60;99.90;;;;;;5095026;28;20215;-52
2022/04/11 07:10:16;;;;;;;7.20;3.83;;;7.80;99.90;;;;;;5094982;28;20165;-53
2022/04/11 07:12:42;;;;;;;8.73;3.80;;;7.90;99.90;;;;;;5094799;28;20209;-54
2022/04/11 07:15:08;;;;;;;4.50;3.50;;;7.90;99.90;;;;;;5094908;28;20170;-51
2022/04/11 07:17:34;;;;;;;9.70;4.50;;;8.00;99.90;;;;;;5094718;28;20208;-51
2022/04/11 07:20:01;;;;;;;5.78;3.42;;;8.10;99.90;;;;;;5094979;28;20215;-51
2022/04/11 07:22:27;;;;;;;9.48;4.03;;;8.20;99.90;;;;;;5094653;28;20681;-51
2022/04/11 07:24:53;;;;;;;6.10;3.95;;;8.30;99.90;;;;;;5094999;28;20172;-51
2022/04/11 07:27:18;;;;;;;9.02;4.65;;;8.30;99.90;;;;;;5094607;28;20173;-54
2022/04/11 07:29:44;;;;;;;8.43;4.30;;;8.50;99.90;;;;;;5094133;28;20212;-51
2022/04/11 07:32:10;;;;;;;5.60;3.83;;;8.60;99.90;;;;;;5092489;28;20252;-51
2022/04/11 07:34:35;;;;;;;10.73;4.25;;;8.70;99.90;;;;;;5094618;28;20187;-51
2022/04/11 07:37:01;;;;;;;8.05;4.20;;;8.70;99.90;;;;;;5094712;28;20177;-51
2022/04/11 07:39:29;;;;;;;7.38;3.78;;;8.90;99.90;;;;;;5094947;28;20256;-50
2022/04/11 07:41:55;;;;;;;10.15;4.05;;;8.90;99.90;;;;;;5094902;28;20174;-52
2022/04/11 07:44:21;;;;;;;7.50;3.97;;;9.00;99.90;;;;;;5094382;28;20175;-52
2022/04/11 07:46:47;;;;;;;8.32;4.20;;;9.10;99.90;;;;;;5076104;28;20173;-52
2022/04/11 07:49:12;;;;;;;6.00;4.47;;;9.10;99.90;;;;;;5094650;28;20176;-52
2022/04/11 07:51:38;;;;;;;12.02;4.18;;;9.30;99.90;;;;;;5094456;28;20172;-52
2022/04/11 07:54:03;;;;;;;8.68;4.63;;;9.40;99.90;;;;;;5094544;28;20173;-52
2022/04/11 07:56:29;;;;;;;4.85;3.70;;;9.40;99.90;;;;;;5094114;28;20170;-51
2022/04/11 07:58:55;;;;;;;7.13;4.30;;;9.50;99.90;;;;;;5076209;28;20193;-52
2022/04/11 08:01:24;;;;;;;8.02;3.90;;;9.60;99.90;;;;;;5094034;28;20690;-52
2022/04/11 08:03:50;;;;;;;8.63;4.18;;;9.70;99.90;;;;;;5093916;28;20213;-53
2022/04/11 08:06:17;;;;;;;9.45;4.72;;;9.80;99.90;;;;;;5076065;28;20264;-53
2022/04/11 08:08:46;;;;;;;7.55;4.60;;;9.80;99.90;;;;;;5094166;28;20575;-53
2022/04/11 08:11:15;;;;;;;7.95;4.45;;;9.90;99.90;;;;;;5094115;28;20169;-53
2022/04/11 08:13:42;;;;;;;13.50;4.57;;;10.00;99.90;;;;;;5093673;28;20205;-53
2022/04/11 08:16:08;;;;;;;7.20;4.72;;;10.20;99.90;;;;;;5094033;28;20581;-53
2022/04/11 08:18:33;;;;;;;6.47;4.57;;;10.30;99.90;;;;;;5093961;28;20165;-52
2022/04/11 08:21:01;;;;;;;6.00;4.60;;;10.40;99.90;;;;;;5093556;28;20226;-53
2022/04/11 08:23:27;;;;;;;11.57;4.65;;;10.50;99.90;;;;;;5076298;28;20205;-52
2022/04/11 08:25:53;;;;;;;7.70;5.00;;;10.60;99.90;;;;;;5093863;28;20614;-52
2022/04/11 08:28:22;;;;;;;6.28;4.97;;;10.60;99.90;;;;;;5093548;28;20184;-52
2022/04/11 08:30:47;;;;;;;8.70;4.93;;;10.80;99.90;;;;;;5093724;28;20172;-53
2022/04/11 08:33:13;;;;;;;8.60;4.93;;;10.80;99.90;;;;;;5093526;28;20173;-52
2022/04/11 08:35:39;;;;;;;10.13;4.53;;;10.90;99.90;;;;;;5093365;28;20641;-53
2022/04/11 08:38:05;;;;;;;6.70;4.75;;;11.00;99.90;;;;;;5093402;28;20165;-53
2022/04/11 08:40:31;;;;;;;5.68;4.13;;;11.10;99.90;;;;;;5093425;28;20169;-53
2022/04/11 08:42:56;;;;;;;5.57;4.38;;;11.30;99.90;;;;;;5092319;28;20693;-52
2022/04/11 08:45:23;;;;;;;5.47;4.07;;;11.20;99.90;;;;;;5093402;28;20161;-53
2022/04/11 08:47:50;;;;;;;7.63;4.22;;;11.40;99.90;;;;;;5093076;28;20162;-52
2022/04/11 08:50:17;;;;;;;6.32;4.50;;;11.40;99.90;;;;;;5092681;28;20173;-53
2022/04/11 08:52:43;;;;;;;7.30;4.40;;;11.60;99.90;;;;;;5092913;28;20197;-52
2022/04/11 08:55:10;;;;;;;8.68;4.75;;;11.50;99.90;;;;;;5092896;28;20691;-52
2022/04/11 08:57:36;;;;;;;6.30;3.95;;;11.60;99.90;;;;;;5092981;28;20197;-51
2022/04/11 09:00:06;;;;;;;6.65;3.92;;;11.70;99.90;;;;;;5092758;28;20252;-52
2022/04/11 09:02:35;;;;;;;7.15;3.53;;;11.90;99.90;;;;;;5073174;28;20270;-52
2022/04/11 09:05:02;;;;;;;7.00;3.58;;;12.00;99.90;;;;;;5092837;28;20174;-53
2022/04/11 09:07:28;;;;;;;10.85;4.05;;;12.00;99.90;;;;;;5092233;28;20177;-52
2022/04/11 09:09:59;;;;;;;8.93;3.67;;;12.00;99.90;;;;;;5093062;28;20176;-52
2022/04/11 09:12:24;;;;;;;5.88;4.00;;;12.10;99.90;;;;;;5092824;28;20209;-53
2022/04/11 09:14:56;;;;;;;5.93;3.60;;;12.30;99.90;;;;;;5092642;28;20184;-53
2022/04/11 09:17:23;;;;;;;6.20;3.50;;;12.30;99.90;;;;;;5092571;28;20199;-53
2022/04/11 09:20:10;;;;;;;8.52;3.25;;;12.30;99.90;;;;;;5074163;28;20656;-52
2022/04/11 09:22:36;;;;;;;5.70;3.10;;;12.20;99.90;;;;;;5092200;28;20205;-52
2022/04/11 09:25:08;;;;;;;6.50;2.63;;;12.50;99.90;;;;;;5092455;28;20168;-52
2022/04/11 09:27:34;;;;;;;4.15;2.50;;;12.50;99.90;;;;;;5092358;28;20185;-54
2022/04/11 09:30:00;;;;;;;5.55;2.35;;;12.50;99.90;;;;;;5092662;28;20169;-52
2022/04/11 09:32:25;;;;;;;7.35;3.03;;;12.60;99.90;;;;;;5092736;28;20168;-53
2022/04/11 09:34:54;;;;;;;7.55;2.90;;;12.70;99.90;;;;;;5092315;28;20633;-51
2022/04/11 09:37:22;;;;;;;3.25;2.40;;;12.70;99.90;;;;;;5092728;28;20161;-53
2022/04/11 09:39:58;;;;;;;4.97;2.47;;;12.80;99.90;;;;;;5092105;28;20175;-53
2022/04/11 09:42:31;;;;;;;4.70;3.50;;;13.00;99.90;;;;;;5092443;28;20207;-52
2022/04/11 09:44:59;;;;;;;4.30;3.00;;;13.00;99.90;;;;;;5092743;28;20201;-53
2022/04/11 09:47:25;;;;;;;9.32;3.53;;;13.00;99.90;;;;;;5092661;28;20719;-52
2022/04/11 09:49:50;;;;;;;5.53;2.97;;;13.00;99.90;;;;;;5092112;28;20162;-52
2022/04/11 09:52:16;;;;;;;4.85;2.88;;;13.10;99.90;;;;;;5092315;28;20173;-52
2022/04/11 09:54:47;;;;;;;8.38;3.10;;;13.10;99.10;;;;;;5089950;28;20192;-53
2022/04/11 09:57:15;;;;;;;5.30;3.15;;;13.20;99.90;;;;;;5092064;28;20222;-53
2022/04/11 09:59:41;;;;;;;3.15;2.75;;;13.10;99.30;;;;;;5091917;28;20248;-53
2022/04/11 10:02:10;;;;;;;4.22;3.00;;;13.30;99.90;;;;;;5091819;28;20213;-53
2022/04/11 10:04:36;;;;;;;5.82;3.53;;;13.40;99.90;;;;;;5092156;28;20177;-52
2022/04/11 10:07:02;;;;;;;5.15;2.97;;;13.40;98.00;;;;;;5091809;28;20657;-53
2022/04/11 10:09:28;;;;;;;4.13;2.90;;;13.50;98.20;;;;;;5091784;28;20165;-52
2022/04/11 10:11:54;;;;;;;6.88;2.80;;;13.60;97.10;;;;;;5073777;28;20167;-53
2022/04/11 10:14:28;;;;;;;8.38;3.08;;;13.50;96.20;;;;;;5091819;28;20196;-53
2022/04/11 10:16:56;;;;;;;7.15;3.00;;;13.70;96.20;;;;;;5092286;28;20581;-53
2022/04/11 10:19:28;;;;;;;4.97;2.95;;;13.70;95.80;;;;;;5091783;28;20161;-52
2022/04/11 10:21:57;;;;;;;6.75;2.50;;;13.80;95.00;;;;;;5092194;28;20226;-52
2022/04/11 10:24:33;;;;;;;4.80;3.00;;;13.80;96.40;;;;;;5092239;28;20553;-53
2022/04/11 10:27:19;;;;;;;5.88;2.80;;;13.90;93.80;;;;;;5091499;28;20700;-52
2022/04/11 10:29:45;;;;;;;3.50;2.60;;;13.90;92.80;;;;;;5091824;28;20176;-53
2022/04/11 10:32:19;;;;;;;5.65;2.85;;;14.00;93.00;;;;;;5091755;28;20253;-53
2022/04/11 10:34:52;;;;;;;4.10;2.35;;;13.70;90.60;;;;;;5091695;28;20658;-53
2022/04/11 10:37:20;;;;;;;5.63;2.75;;;13.70;90.90;;;;;;5091889;28;20546;-53
2022/04/11 10:39:46;;;;;;;4.38;3.00;;;13.90;91.20;;;;;;5091778;28;20199;-53
2022/04/11 10:42:20;;;;;;;3.95;2.50;;;13.80;90.80;;;;;;5091631;28;20197;-53
2022/04/11 10:44:50;;;;;;;5.70;2.90;;;14.20;91.60;;;;;;5091569;28;20252;-53
2022/04/11 10:47:16;;;;;;;5.00;3.00;;;14.30;91.50;;;;;;5091715;28;20561;-53
2022/04/11 10:49:44;;;;;;;3.28;2.45;;;14.20;93.10;;;;;;5091448;28;20173;-53
2022/04/11 10:52:29;;;;;;;3.53;2.30;;;14.00;92.00;;;;;;5091482;28;20175;-53
2022/04/11 10:54:56;;;;;;;6.18;2.50;;;14.20;90.40;;;;;;5091454;28;20167;-53
2022/04/11 10:57:36;;;;;;;3.42;2.25;;;14.30;90.30;;;;;;5091689;28;20172;-53
2022/04/11 11:00:08;;;;;;;4.82;2.28;;;14.20;86.80;;;;;;5073464;28;20205;-53
2022/04/11 11:02:52;;;;;;;6.72;2.60;;;14.20;86.60;;;;;;5091269;28;20208;-54
2022/04/11 11:05:36;;;;;;;5.53;2.53;;;14.40;88.20;;;;;;5092363;28;20173;-53
2022/04/11 11:08:13;;;;;;;5.90;2.53;;;14.30;85.90;;;;;;5094693;28;20173;-53
2022/04/11 11:11:02;;;;;;;5.47;2.80;;;14.60;89.90;;;;;;5094796;28;20168;-53
2022/04/11 11:13:41;;;;;;;7.32;2.70;;;14.50;88.40;;;;;;5094731;28;20221;-53
2022/04/11 11:16:07;;;;;;;6.72;2.40;;;14.90;85.30;;;;;;5095160;28;20550;-53
2022/04/11 11:18:50;;;;;;;7.20;3.08;;;14.90;86.30;;;;;;5094871;28;20258;-53
2022/04/11 11:21:33;;;;;;;3.22;2.47;;;14.90;84.80;;;;;;5076768;28;20172;-52
2022/04/11 11:24:06;;;;;;;11.70;3.67;;;14.70;83.60;;;;;;5076355;28;20216;-53
2022/04/11 11:26:46;;;;;;;4.22;3.15;;;14.80;87.10;;;;;;5094816;28;20188;-53
2022/04/11 11:29:32;;;;;;;4.90;2.60;;;14.90;86.00;;;;;;5094600;28;20173;-53
2022/04/11 11:32:05;;;;;;;5.68;2.63;;;14.90;84.70;;;;;;5094569;28;20165;-53
2022/04/11 11:34:34;;;;;;;5.22;2.70;;;15.20;85.30;;;;;;5094539;28;20218;-53
2022/04/11 11:37:04;;;;;;;3.85;3.13;;;15.00;82.70;;;;;;5094619;28;20166;-53
2022/04/11 11:39:32;;;;;;;5.55;2.60;;;14.80;84.70;;;;;;5094497;28;20165;-54
2022/04/11 11:42:03;;;;;;;8.98;3.30;;;15.10;87.70;;;;;;5094210;28;20165;-52
2022/04/11 11:44:30;;;;;;;3.92;2.40;;;15.10;82.80;;;;;;5094402;28;20177;-51
2022/04/11 11:47:00;;;;;;;5.30;3.20;;;15.20;85.00;;;;;;5094877;28;20170;-52
2022/04/11 11:49:40;;;;;;;6.22;2.65;;;15.20;83.50;;;;;;5094661;28;20171;-52
2022/04/11 11:52:20;;;;;;;3.60;2.67;;;15.20;82.30;;;;;;5094511;28;20274;-53
2022/04/11 11:54:51;;;;;;;5.47;2.65;;;15.40;83.30;;;;;;5094165;28;20570;-52
2022/04/11 11:57:24;;;;;;;6.68;3.13;;;15.40;83.10;;;;;;5094449;28;20176;-53
2022/04/11 11:59:53;;;;;;;6.38;3.28;;;15.40;81.50;;;;;;5093580;28;20295;-53
2022/04/11 12:05:15;;;;;;;13.98;12.15;;;15.50;83.60;;;;;;5094022;28;20318;-53
2022/04/11 12:07:40;;;;;;;8.13;3.35;;;15.60;83.20;;;;;;5093779;28;20226;-53
2022/04/11 12:10:09;;;;;;;9.65;4.07;;;15.40;80.40;;;;;;5093986;28;20197;-53
2022/04/11 12:12:35;;;;;;;4.00;2.83;;;15.50;82.40;;;;;;5093707;28;20244;-53
2022/04/11 12:15:06;;;;;;;4.88;2.88;;;15.50;82.10;;;;;;5093786;28;20207;-52
2022/04/11 12:17:42;;;;;;;9.13;6.72;;;15.70;84.20;;;;;;5093219;28;20609;-53
2022/04/11 12:20:12;;;;;;;4.35;2.92;;;15.80;82.20;;;;;;5094018;28;20222;-53
2022/04/11 12:22:39;;;;;;;6.03;2.92;;;15.90;79.30;;;;;;5093661;28;20264;-53
2022/04/11 12:25:24;;;;;;;4.72;3.03;;;16.00;80.50;;;;;;5093858;28;20188;-53
2022/04/11 12:27:50;;;;;;;15.95;7.97;;;16.00;81.10;;;;;;5093567;28;20231;-53
2022/04/11 12:30:17;;;;;;;12.32;7.65;;;16.30;80.70;;;;;;5075537;28;20191;-53
2022/04/11 12:32:43;;;;;;;7.40;3.10;;;16.30;80.70;;;;;;5093700;28;20196;-53
2022/04/11 12:35:18;;;;;;;6.95;3.42;;;16.10;82.30;;;;;;5093435;28;20165;-53
2022/04/11 12:37:51;;;;;;;5.07;3.53;;;16.10;78.80;;;;;;5093318;28;20527;-53
2022/04/11 12:40:17;;;;;;;10.52;3.72;;;16.20;79.00;;;;;;5092877;28;20679;-53
2022/04/11 12:42:43;;;;;;;5.18;4.45;;;16.30;80.40;;;;;;5093224;28;20296;-52
2022/04/11 12:45:13;;;;;;;5.63;4.72;;;16.30;78.80;;;;;;5093498;28;20195;-53
2022/04/11 12:48:05;;;;;;;5.35;4.82;;;16.20;78.10;;;;;;5093132;28;20629;-52
2022/04/11 12:50:31;;;;;;;5.35;3.28;;;16.30;79.70;;;;;;5093072;28;20652;-52
2022/04/11 12:52:56;;;;;;;9.38;7.13;;;16.20;78.80;;;;;;5093289;28;20176;-52
2022/04/11 12:55:30;;;;;;;8.43;5.55;;;16.40;81.10;;;;;;5093445;28;20165;-53
2022/04/11 12:58:06;;;;;;;7.10;5.45;;;16.30;79.20;;;;;;5093010;28;20179;-53